createdAt,value
2018-12-14T00:02:17.712Z,25.60
2018-12-14T00:04:58.914Z,26.30
2018-12-14T00:20:52.757Z,25.83
2018-12-14T00:29:06.020Z,27.07
2018-12-14T00:31:45.110Z,26.77
2018-12-14T00:34:31.392Z,24.57
2018-12-14T00:42:47.960Z,22.57
2018-12-14T00:48:13.608Z,28.17
2018-12-14T01:06:56.939Z,24.03
2018-12-14T01:29:19.640Z,26.47
2018-12-14T01:32:03.487Z,26.87
2018-12-14T01:45:55.029Z,28.43
2018-12-14T01:54:10.778Z,30.90
2018-12-14T01:56:57.583Z,27.47
2018-12-14T01:59:47.016Z,30.27
2018-12-14T02:11:00.391Z,28.97
2018-12-14T02:16:26.920Z,33.03
2018-12-14T02:19:08.394Z,30.97
2018-12-14T02:27:09.218Z,27.60
2018-12-14T02:29:53.787Z,29.57
2018-12-14T02:32:34.448Z,27.47
2018-12-14T02:37:56.447Z,27.77
2018-12-14T02:40:35.237Z,30.17
2018-12-14T02:43:24.026Z,27.83
2018-12-14T02:51:45.522Z,28.17
2018-12-14T03:06:10.614Z,25.83
2018-12-14T03:14:28.137Z,30.37
2018-12-14T03:22:40.765Z,31.37
2018-12-14T03:37:29.747Z,30.83
2018-12-14T03:45:23.099Z,30.03
2018-12-14T03:50:42.585Z,30.27
2018-12-14T03:53:20.458Z,32.27
2018-12-14T03:58:41.737Z,30.80
2018-12-14T04:01:19.052Z,32.03
2018-12-14T04:06:42.403Z,30.70
2018-12-14T04:12:02.737Z,38.40
2018-12-14T04:14:38.829Z,35.70
2018-12-14T04:58:56.062Z,34.00
2018-12-14T05:01:32.896Z,35.07
2018-12-14T05:09:35.238Z,35.53
2018-12-14T05:12:13.329Z,31.03
2018-12-14T05:15:00.071Z,37.33
2018-12-14T05:17:37.873Z,37.00
2018-12-14T05:20:19.257Z,40.63
2018-12-14T05:25:46.763Z,35.70
2018-12-14T05:28:25.057Z,34.53
2018-12-14T05:36:48.596Z,38.07
2018-12-14T05:42:16.119Z,39.70
2018-12-14T05:44:50.500Z,41.37
2018-12-14T05:50:12.582Z,37.00
2018-12-14T05:55:37.644Z,40.03
2018-12-14T05:58:19.665Z,43.73
2018-12-14T06:01:06.057Z,40.63
2018-12-14T06:17:37.492Z,40.03
2018-12-14T06:28:45.666Z,35.40
2018-12-14T06:36:58.890Z,36.13
2018-12-14T06:39:37.166Z,38.83
2018-12-14T06:44:48.965Z,36.60
2018-12-14T06:47:22.446Z,36.83
2018-12-14T06:52:42.563Z,35.00
2018-12-14T06:57:49.270Z,33.20
2018-12-14T07:00:32.848Z,35.67
2018-12-14T07:24:38.760Z,38.47
2018-12-14T07:27:21.335Z,33.33
2018-12-14T07:30:02.331Z,33.80
2018-12-14T07:41:11.613Z,37.37
2018-12-14T07:55:22.813Z,37.00
2018-12-14T07:57:58.909Z,34.37
2018-12-14T08:13:08.448Z,36.83
2018-12-14T08:27:23.391Z,39.40
2018-12-14T08:56:40.016Z,31.20
2018-12-14T08:59:22.104Z,34.40
2018-12-14T09:02:02.047Z,33.53
2018-12-14T09:04:48.097Z,36.60
2018-12-14T09:07:24.591Z,31.33
2018-12-14T09:09:57.349Z,34.67
2018-12-14T09:12:28.604Z,35.80
2018-12-14T09:15:02.914Z,39.60
2018-12-14T09:17:32.522Z,37.00
2018-12-14T09:20:04.277Z,40.50
2018-12-14T09:22:34.446Z,39.73
2018-12-14T09:25:04.831Z,38.23
2018-12-14T09:27:35.347Z,38.90
2018-12-14T09:30:07.929Z,48.20
2018-12-14T09:32:40.060Z,36.73
2018-12-14T09:35:12.845Z,34.20
2018-12-14T09:37:44.185Z,38.13
2018-12-14T09:40:24.086Z,43.70
2018-12-14T09:42:57.279Z,38.07
2018-12-14T09:45:35.866Z,40.30
2018-12-14T09:48:11.206Z,38.60
2018-12-14T09:50:45.270Z,34.03
2018-12-14T09:53:17.533Z,38.23
2018-12-14T09:55:57.803Z,37.43
2018-12-14T09:58:33.847Z,36.90
2018-12-14T10:01:09.568Z,34.60
2018-12-14T10:03:44.815Z,35.43
2018-12-14T10:06:18.042Z,34.73
2018-12-14T10:08:52.537Z,33.70
2018-12-14T10:11:23.928Z,32.90
2018-12-14T10:14:00.671Z,33.63
2018-12-14T10:16:29.983Z,31.57
2018-12-14T10:19:01.024Z,30.23
2018-12-14T10:24:18.095Z,30.17
2018-12-14T10:26:50.038Z,30.07
2018-12-14T10:29:29.069Z,27.17
2018-12-14T10:32:05.573Z,30.23
2018-12-14T10:34:45.040Z,27.50
2018-12-14T10:37:18.524Z,32.47
2018-12-14T10:39:55.908Z,30.23
2018-12-14T10:42:30.124Z,29.10
2018-12-14T10:45:02.616Z,32.10
2018-12-14T10:47:34.104Z,30.53
2018-12-14T10:50:06.295Z,29.03
2018-12-14T10:52:40.325Z,34.43
2018-12-14T10:55:12.344Z,32.87
2018-12-14T10:57:42.576Z,32.83
2018-12-14T11:00:24.347Z,29.80
2018-12-14T11:02:56.133Z,29.03
2018-12-14T11:05:28.806Z,27.87
2018-12-14T11:07:59.641Z,32.33
2018-12-14T11:10:30.581Z,28.47
2018-12-14T11:13:01.194Z,26.17
2018-12-14T11:18:18.078Z,27.23
2018-12-14T11:20:57.673Z,29.17
2018-12-14T11:23:28.012Z,26.53
2018-12-14T11:26:03.012Z,29.30
2018-12-14T11:28:38.843Z,31.03
2018-12-14T11:31:13.993Z,25.17
2018-12-14T11:33:48.719Z,28.27
2018-12-14T11:36:20.991Z,24.27
2018-12-14T11:39:02.167Z,25.93
2018-12-14T11:41:37.837Z,29.80
2018-12-14T11:47:18.281Z,30.80
2018-12-14T11:49:50.201Z,29.27
2018-12-14T11:52:21.513Z,26.33
2018-12-14T11:54:57.333Z,26.03
2018-12-14T11:57:44.857Z,25.43
2018-12-14T12:05:37.687Z,22.93
2018-12-14T12:10:54.305Z,21.07
2018-12-14T12:13:31.227Z,25.47
2018-12-14T12:16:07.441Z,19.77
2018-12-14T12:19:23.448Z,23.10
2018-12-14T12:25:02.179Z,18.63
2018-12-14T12:27:57.711Z,23.23
2018-12-14T12:30:37.919Z,20.37
2018-12-14T12:33:12.586Z,22.90
2018-12-14T12:38:38.291Z,20.43
2018-12-14T12:41:08.734Z,23.93
2018-12-14T12:43:39.033Z,22.73
2018-12-14T12:46:13.136Z,22.60
2018-12-14T12:48:42.900Z,20.10
2018-12-14T12:51:14.865Z,19.80
2018-12-14T12:53:46.985Z,18.30
2018-12-14T12:56:17.074Z,20.70
2018-12-14T12:58:48.741Z,23.20
2018-12-14T13:01:19.534Z,23.13
2018-12-14T13:03:51.328Z,21.20
2018-12-14T13:09:17.483Z,19.07
2018-12-14T13:14:48.424Z,21.87
2018-12-14T13:17:25.528Z,21.53
2018-12-14T13:20:10.380Z,22.90
2018-12-14T13:22:44.479Z,23.07
2018-12-14T13:25:20.590Z,24.50
2018-12-14T13:36:05.606Z,25.63
2018-12-14T13:38:41.981Z,23.20
2018-12-14T13:41:21.562Z,18.80
2018-12-14T13:49:40.837Z,19.97
2018-12-14T13:52:17.093Z,19.60
2018-12-14T13:57:46.068Z,22.57
2018-12-14T14:00:19.411Z,20.60
2018-12-14T14:03:01.923Z,19.60
2018-12-14T14:05:38.569Z,19.00
2018-12-14T14:08:13.189Z,20.00
2018-12-14T14:10:43.667Z,21.80
2018-12-14T14:13:14.092Z,23.83
2018-12-14T14:18:29.476Z,25.40
2018-12-14T14:21:04.148Z,21.57
2018-12-14T14:26:10.648Z,21.40
2018-12-14T14:28:40.224Z,22.13
2018-12-14T14:31:11.606Z,23.00
2018-12-14T14:33:41.969Z,19.57
2018-12-14T14:36:12.588Z,19.20
2018-12-14T14:38:42.163Z,20.60
2018-12-14T14:41:14.007Z,21.40
2018-12-14T14:43:44.521Z,20.13
2018-12-14T14:46:15.437Z,18.60
2018-12-14T14:48:47.795Z,18.83
2018-12-14T14:51:20.383Z,22.90
2018-12-14T14:56:27.963Z,23.20
2018-12-14T15:01:59.547Z,23.40
2018-12-14T15:04:37.413Z,20.20
2018-12-14T15:09:54.687Z,21.83
2018-12-14T15:12:26.551Z,19.57
2018-12-14T15:14:57.749Z,24.73
2018-12-14T15:17:29.821Z,26.23
2018-12-14T15:20:05.592Z,24.37
2018-12-14T15:22:35.615Z,24.67
2018-12-14T15:25:05.026Z,21.90
2018-12-14T15:27:34.654Z,22.17
2018-12-14T15:30:05.012Z,24.30
2018-12-14T15:32:34.776Z,23.00
2018-12-14T15:35:04.226Z,22.17
2018-12-14T15:37:34.593Z,19.90
2018-12-14T15:40:04.469Z,21.47
2018-12-14T15:42:35.467Z,21.03
2018-12-14T15:45:06.110Z,22.57
2018-12-14T15:47:35.875Z,25.30
2018-12-14T15:50:08.192Z,22.87
2018-12-14T15:52:42.993Z,24.53
2018-12-14T15:55:21.968Z,24.93
2018-12-14T15:57:52.531Z,26.77
2018-12-14T16:00:23.460Z,28.90
2018-12-14T16:02:54.672Z,31.27
2018-12-14T16:05:28.134Z,29.83
2018-12-14T16:08:15.062Z,27.33
2018-12-14T16:10:48.675Z,26.83
2018-12-14T16:13:21.066Z,23.67
2018-12-14T16:15:59.649Z,26.03
2018-12-14T16:21:20.488Z,24.23
2018-12-14T16:24:04.141Z,23.43
2018-12-14T16:26:40.766Z,22.93
2018-12-14T16:29:16.668Z,27.60
2018-12-14T16:31:49.724Z,21.17
2018-12-14T16:34:25.591Z,25.93
2018-12-14T16:36:59.237Z,33.63
2018-12-14T16:44:53.987Z,27.50
2018-12-14T16:47:36.908Z,28.00
2018-12-14T16:50:15.933Z,26.00
2018-12-14T16:52:52.720Z,25.70
2018-12-14T16:55:26.868Z,27.80
2018-12-14T16:57:58.000Z,25.40
2018-12-14T17:00:30.647Z,26.27
2018-12-14T17:03:07.916Z,28.80
2018-12-14T17:08:29.129Z,31.20
2018-12-14T17:11:19.268Z,28.20
2018-12-14T17:13:56.523Z,30.63
2018-12-14T17:16:27.398Z,27.87
2018-12-14T17:18:57.989Z,32.10
2018-12-14T17:21:37.045Z,27.80
2018-12-14T17:24:08.559Z,32.97
2018-12-14T17:26:40.111Z,32.93
2018-12-14T17:29:13.526Z,31.33
2018-12-14T17:31:47.861Z,33.47
2018-12-14T17:37:10.498Z,28.97
2018-12-14T17:39:46.384Z,28.50
2018-12-14T17:42:29.231Z,28.87
2018-12-14T17:45:02.893Z,27.60
2018-12-14T17:50:29.617Z,30.90
2018-12-14T18:01:22.203Z,28.43
2018-12-14T18:03:53.563Z,26.90
2018-12-14T18:06:22.984Z,24.40
2018-12-14T18:08:53.955Z,28.03
2018-12-14T18:16:53.127Z,33.27
2018-12-14T18:19:38.366Z,24.50
2018-12-14T18:22:08.939Z,27.17
2018-12-14T18:24:44.475Z,24.90
2018-12-14T18:27:19.990Z,25.97
2018-12-14T18:32:34.856Z,30.60
2018-12-14T18:35:08.235Z,29.87
2018-12-14T18:37:39.687Z,23.37
2018-12-14T18:40:14.123Z,24.77
2018-12-14T18:45:33.765Z,30.87
2018-12-14T18:48:08.113Z,24.50
2018-12-14T18:53:23.568Z,26.40
2018-12-14T18:55:57.016Z,25.20
2018-12-14T18:58:30.419Z,28.70
2018-12-14T19:01:07.973Z,27.47
2018-12-14T19:06:30.792Z,26.77
2018-12-14T19:09:11.102Z,25.33
2018-12-14T19:11:49.768Z,25.23
2018-12-14T19:14:25.209Z,25.83
2018-12-14T19:17:01.284Z,22.87
2018-12-14T19:19:35.282Z,25.37
2018-12-14T19:22:17.403Z,27.07
2018-12-14T19:33:17.816Z,29.20
2018-12-14T19:38:33.875Z,25.17
2018-12-14T19:41:10.741Z,25.20
2018-12-14T19:43:54.164Z,24.77
2018-12-14T19:52:06.332Z,26.83
2018-12-14T19:57:34.278Z,26.27
2018-12-14T20:00:15.125Z,27.83
2018-12-14T20:05:50.608Z,26.93
2018-12-14T20:08:26.702Z,26.50
2018-12-14T20:11:14.241Z,28.90
2018-12-14T20:22:02.223Z,28.20
2018-12-14T20:42:06.175Z,24.03
2018-12-14T20:50:18.111Z,24.57
2018-12-14T20:56:30.639Z,21.87
2018-12-14T20:59:06.455Z,23.07
2018-12-14T21:01:49.871Z,25.13
2018-12-14T21:04:43.680Z,20.80
2018-12-14T21:07:29.358Z,21.70
2018-12-14T21:10:12.521Z,21.00
2018-12-14T21:12:56.433Z,21.40
2018-12-14T21:15:38.481Z,24.60
2018-12-14T21:18:13.904Z,21.67
2018-12-14T21:20:55.118Z,18.90
2018-12-14T21:23:32.460Z,22.37
2018-12-14T21:26:10.418Z,19.63
2018-12-14T21:29:04.160Z,19.07
2018-12-14T21:31:42.822Z,20.07
2018-12-14T21:34:17.409Z,19.67
2018-12-14T21:40:03.559Z,20.73
2018-12-14T21:42:46.960Z,19.10
2018-12-14T21:59:22.009Z,17.70
2018-12-14T22:05:09.301Z,17.93
2018-12-14T22:10:30.012Z,19.33
2018-12-14T22:18:49.528Z,19.47
2018-12-14T22:21:24.160Z,18.30
2018-12-14T22:38:08.530Z,19.00
2018-12-14T22:40:45.087Z,18.60
2018-12-14T22:43:25.159Z,21.23
2018-12-14T22:54:27.263Z,21.13
2018-12-14T22:56:58.224Z,20.67
2018-12-14T22:59:29.682Z,22.20
2018-12-14T23:01:59.810Z,18.83
2018-12-14T23:04:30.118Z,24.07
2018-12-14T23:07:02.787Z,21.70
2018-12-14T23:09:51.839Z,19.77
2018-12-14T23:12:24.762Z,18.73
2018-12-14T23:14:57.237Z,20.70
2018-12-14T23:17:30.248Z,26.20
2018-12-14T23:20:01.213Z,22.50
2018-12-14T23:22:31.704Z,20.70
2018-12-14T23:27:50.245Z,22.73
2018-12-14T23:30:35.727Z,19.50
2018-12-14T23:35:49.776Z,23.07
2018-12-14T23:38:19.589Z,22.53
2018-12-14T23:40:52.126Z,22.73
2018-12-14T23:43:27.700Z,21.57
2018-12-14T23:48:41.495Z,19.77
2018-12-14T23:51:13.569Z,20.37
2018-12-14T23:53:53.577Z,20.20
2018-12-14T23:56:26.842Z,23.07
2018-12-14T23:58:58.699Z,21.70
